sensor_id;sensor_type;location;lat;lon;timestamp;P1;durP1;ratioP1;P2;durP2;ratioP2
23123;SDS011;11731;48.592;8.858;2023-04-03T00:02:01;4.20;;;2.17;;
23123;SDS011;11731;48.592;8.858;2023-04-03T00:04:29;3.97;;;2.37;;
23123;SDS011;11731;48.592;8.858;2023-04-03T00:06:56;2.63;;;2.43;;
23123;SDS011;11731;48.592;8.858;2023-04-03T00:09:23;5.60;;;2.40;;
23123;SDS011;11731;48.592;8.858;2023-04-03T00:11:51;3.40;;;2.07;;
23123;SDS011;11731;48.592;8.858;2023-04-03T00:14:17;3.60;;;2.30;;
23123;SDS011;11731;48.592;8.858;2023-04-03T00:16:46;2.50;;;2.10;;
23123;SDS011;11731;48.592;8.858;2023-04-03T00:19:18;3.37;;;2.00;;
23123;SDS011;11731;48.592;8.858;2023-04-03T00:21:47;3.33;;;2.30;;
23123;SDS011;11731;48.592;8.858;2023-04-03T00:24:14;3.40;;;2.60;;
23123;SDS011;11731;48.592;8.858;2023-04-03T00:26:41;2.67;;;2.30;;
23123;SDS011;11731;48.592;8.858;2023-04-03T00:29:08;3.77;;;2.23;;
23123;SDS011;11731;48.592;8.858;2023-04-03T00:31:35;2.63;;;2.43;;
23123;SDS011;11731;48.592;8.858;2023-04-03T00:34:02;3.67;;;2.83;;
23123;SDS011;11731;48.592;8.858;2023-04-03T00:36:29;2.50;;;2.00;;
23123;SDS011;11731;48.592;8.858;2023-04-03T00:38:57;4.10;;;2.30;;
23123;SDS011;11731;48.592;8.858;2023-04-03T00:41:25;3.33;;;2.27;;
23123;SDS011;11731;48.592;8.858;2023-04-03T00:43:55;3.10;;;2.27;;
23123;SDS011;11731;48.592;8.858;2023-04-03T00:46:30;4.63;;;2.17;;
23123;SDS011;11731;48.592;8.858;2023-04-03T00:50:35;2.97;;;2.23;;
23123;SDS011;11731;48.592;8.858;2023-04-03T00:52:51;2.50;;;2.20;;
23123;SDS011;11731;48.592;8.858;2023-04-03T00:55:20;2.40;;;2.13;;
23123;SDS011;11731;48.592;8.858;2023-04-03T00:57:48;6.23;;;2.40;;
23123;SDS011;11731;48.592;8.858;2023-04-03T01:00:16;4.00;;;2.37;;
23123;SDS011;11731;48.592;8.858;2023-04-03T01:02:47;2.47;;;2.27;;
23123;SDS011;11731;48.592;8.858;2023-04-03T01:05:14;4.23;;;2.30;;
23123;SDS011;11731;48.592;8.858;2023-04-03T01:07:46;3.73;;;1.93;;
23123;SDS011;11731;48.592;8.858;2023-04-03T01:10:15;2.73;;;2.40;;
23123;SDS011;11731;48.592;8.858;2023-04-03T01:12:46;2.40;;;2.00;;
23123;SDS011;11731;48.592;8.858;2023-04-03T01:15:16;3.47;;;2.40;;
23123;SDS011;11731;48.592;8.858;2023-04-03T01:17:44;3.93;;;2.20;;
23123;SDS011;11731;48.592;8.858;2023-04-03T01:20:21;3.93;;;2.67;;
23123;SDS011;11731;48.592;8.858;2023-04-03T01:23:13;3.70;;;2.10;;
23123;SDS011;11731;48.592;8.858;2023-04-03T01:25:50;3.80;;;2.30;;
23123;SDS011;11731;48.592;8.858;2023-04-03T01:28:24;2.80;;;2.30;;
23123;SDS011;11731;48.592;8.858;2023-04-03T01:30:55;2.83;;;2.20;;
23123;SDS011;11731;48.592;8.858;2023-04-03T01:33:28;3.17;;;2.10;;
23123;SDS011;11731;48.592;8.858;2023-04-03T01:35:58;2.70;;;2.33;;
23123;SDS011;11731;48.592;8.858;2023-04-03T01:38:46;4.23;;;2.30;;
23123;SDS011;11731;48.592;8.858;2023-04-03T01:41:13;3.37;;;2.53;;
23123;SDS011;11731;48.592;8.858;2023-04-03T01:43:41;2.50;;;2.30;;
23123;SDS011;11731;48.592;8.858;2023-04-03T01:46:08;3.77;;;2.33;;
23123;SDS011;11731;48.592;8.858;2023-04-03T01:48:41;3.03;;;2.50;;
23123;SDS011;11731;48.592;8.858;2023-04-03T01:51:13;3.43;;;2.40;;
23123;SDS011;11731;48.592;8.858;2023-04-03T01:53:40;2.87;;;2.10;;
23123;SDS011;11731;48.592;8.858;2023-04-03T01:56:07;2.87;;;2.40;;
23123;SDS011;11731;48.592;8.858;2023-04-03T01:58:34;2.90;;;2.20;;
23123;SDS011;11731;48.592;8.858;2023-04-03T02:01:03;3.53;;;2.30;;
23123;SDS011;11731;48.592;8.858;2023-04-03T02:03:31;4.00;;;2.47;;
23123;SDS011;11731;48.592;8.858;2023-04-03T02:05:59;2.53;;;2.27;;
23123;SDS011;11731;48.592;8.858;2023-04-03T02:08:42;3.50;;;2.20;;
23123;SDS011;11731;48.592;8.858;2023-04-03T02:11:35;2.53;;;1.70;;
23123;SDS011;11731;48.592;8.858;2023-04-03T02:14:05;2.10;;;1.90;;
23123;SDS011;11731;48.592;8.858;2023-04-03T02:16:33;3.80;;;2.40;;
23123;SDS011;11731;48.592;8.858;2023-04-03T02:19:00;2.63;;;2.37;;
23123;SDS011;11731;48.592;8.858;2023-04-03T02:21:28;3.00;;;2.67;;
23123;SDS011;11731;48.592;8.858;2023-04-03T02:23:56;2.53;;;2.10;;
23123;SDS011;11731;48.592;8.858;2023-04-03T02:26:23;3.27;;;2.20;;
23123;SDS011;11731;48.592;8.858;2023-04-03T02:28:50;2.73;;;2.30;;
23123;SDS011;11731;48.592;8.858;2023-04-03T02:31:17;3.00;;;2.27;;
23123;SDS011;11731;48.592;8.858;2023-04-03T02:33:45;3.10;;;2.37;;
23123;SDS011;11731;48.592;8.858;2023-04-03T02:36:12;4.53;;;1.90;;
23123;SDS011;11731;48.592;8.858;2023-04-03T02:38:41;2.73;;;2.30;;
23123;SDS011;11731;48.592;8.858;2023-04-03T02:41:09;3.33;;;2.23;;
23123;SDS011;11731;48.592;8.858;2023-04-03T02:43:37;2.67;;;1.93;;
23123;SDS011;11731;48.592;8.858;2023-04-03T02:46:04;4.03;;;2.27;;
23123;SDS011;11731;48.592;8.858;2023-04-03T02:48:31;2.23;;;1.70;;
23123;SDS011;11731;48.592;8.858;2023-04-03T02:50:58;2.53;;;2.17;;
23123;SDS011;11731;48.592;8.858;2023-04-03T02:53:26;2.77;;;2.10;;
23123;SDS011;11731;48.592;8.858;2023-04-03T02:55:54;3.27;;;2.40;;
23123;SDS011;11731;48.592;8.858;2023-04-03T02:58:21;3.20;;;2.50;;
23123;SDS011;11731;48.592;8.858;2023-04-03T03:00:48;2.27;;;2.00;;
23123;SDS011;11731;48.592;8.858;2023-04-03T03:03:18;2.40;;;2.10;;
23123;SDS011;11731;48.592;8.858;2023-04-03T03:05:45;2.80;;;2.50;;
23123;SDS011;11731;48.592;8.858;2023-04-03T03:08:13;2.73;;;2.00;;
23123;SDS011;11731;48.592;8.858;2023-04-03T03:10:40;3.13;;;2.60;;
23123;SDS011;11731;48.592;8.858;2023-04-03T03:13:08;2.47;;;2.13;;
23123;SDS011;11731;48.592;8.858;2023-04-03T03:15:35;2.80;;;2.40;;
23123;SDS011;11731;48.592;8.858;2023-04-03T03:18:04;2.30;;;2.10;;
23123;SDS011;11731;48.592;8.858;2023-04-03T03:20:31;2.50;;;2.30;;
23123;SDS011;11731;48.592;8.858;2023-04-03T03:22:58;2.83;;;2.20;;
23123;SDS011;11731;48.592;8.858;2023-04-03T03:25:24;3.90;;;2.20;;
23123;SDS011;11731;48.592;8.858;2023-04-03T03:27:51;2.50;;;2.03;;
23123;SDS011;11731;48.592;8.858;2023-04-03T03:30:25;2.77;;;2.17;;
23123;SDS011;11731;48.592;8.858;2023-04-03T03:33:06;2.30;;;2.10;;
23123;SDS011;11731;48.592;8.858;2023-04-03T03:36:02;3.90;;;2.53;;
23123;SDS011;11731;48.592;8.858;2023-04-03T03:38:29;2.73;;;2.33;;
23123;SDS011;11731;48.592;8.858;2023-04-03T03:40:56;2.70;;;2.20;;
23123;SDS011;11731;48.592;8.858;2023-04-03T03:43:24;2.67;;;2.27;;
23123;SDS011;11731;48.592;8.858;2023-04-03T03:45:53;3.10;;;2.30;;
23123;SDS011;11731;48.592;8.858;2023-04-03T03:48:20;3.00;;;2.37;;
23123;SDS011;11731;48.592;8.858;2023-04-03T03:50:48;4.40;;;2.40;;
23123;SDS011;11731;48.592;8.858;2023-04-03T03:53:15;2.27;;;2.07;;
23123;SDS011;11731;48.592;8.858;2023-04-03T03:55:42;2.70;;;2.07;;
23123;SDS011;11731;48.592;8.858;2023-04-03T03:58:10;2.47;;;2.10;;
23123;SDS011;11731;48.592;8.858;2023-04-03T04:04:06;2.30;;;2.10;;
23123;SDS011;11731;48.592;8.858;2023-04-03T04:06:33;2.80;;;2.37;;
23123;SDS011;11731;48.592;8.858;2023-04-03T04:09:01;2.23;;;2.03;;
23123;SDS011;11731;48.592;8.858;2023-04-03T04:11:43;5.10;;;2.03;;
23123;SDS011;11731;48.592;8.858;2023-04-03T04:17:32;3.10;;;2.30;;
23123;SDS011;11731;48.592;8.858;2023-04-03T04:26:28;4.23;;;2.20;;
23123;SDS011;11731;48.592;8.858;2023-04-03T04:28:54;2.93;;;2.33;;
23123;SDS011;11731;48.592;8.858;2023-04-03T04:31:21;2.47;;;1.80;;
23123;SDS011;11731;48.592;8.858;2023-04-03T04:33:48;2.70;;;2.23;;
23123;SDS011;11731;48.592;8.858;2023-04-03T04:36:17;3.57;;;2.37;;
23123;SDS011;11731;48.592;8.858;2023-04-03T04:38:46;2.50;;;2.07;;
23123;SDS011;11731;48.592;8.858;2023-04-03T04:41:12;2.40;;;2.00;;
23123;SDS011;11731;48.592;8.858;2023-04-03T04:43:41;2.03;;;1.83;;
23123;SDS011;11731;48.592;8.858;2023-04-03T04:46:20;1.80;;;1.70;;
23123;SDS011;11731;48.592;8.858;2023-04-03T04:48:48;4.87;;;2.17;;
23123;SDS011;11731;48.592;8.858;2023-04-03T04:51:15;2.43;;;1.93;;
23123;SDS011;11731;48.592;8.858;2023-04-03T04:53:42;3.90;;;2.03;;
23123;SDS011;11731;48.592;8.858;2023-04-03T04:56:09;2.90;;;2.20;;
23123;SDS011;11731;48.592;8.858;2023-04-03T04:58:36;2.80;;;1.77;;
23123;SDS011;11731;48.592;8.858;2023-04-03T05:04:21;2.17;;;1.80;;
23123;SDS011;11731;48.592;8.858;2023-04-03T05:06:48;2.83;;;1.77;;
23123;SDS011;11731;48.592;8.858;2023-04-03T05:09:15;2.70;;;2.17;;
23123;SDS011;11731;48.592;8.858;2023-04-03T05:11:44;3.10;;;1.97;;
23123;SDS011;11731;48.592;8.858;2023-04-03T05:14:11;3.07;;;2.20;;
23123;SDS011;11731;48.592;8.858;2023-04-03T05:16:38;2.50;;;2.07;;
23123;SDS011;11731;48.592;8.858;2023-04-03T05:19:05;3.47;;;2.17;;
23123;SDS011;11731;48.592;8.858;2023-04-03T05:21:37;2.20;;;2.00;;
23123;SDS011;11731;48.592;8.858;2023-04-03T05:24:04;2.60;;;2.00;;
23123;SDS011;11731;48.592;8.858;2023-04-03T05:26:41;4.03;;;1.90;;
23123;SDS011;11731;48.592;8.858;2023-04-03T05:29:08;2.17;;;1.87;;
23123;SDS011;11731;48.592;8.858;2023-04-03T05:32:08;2.60;;;2.00;;
23123;SDS011;11731;48.592;8.858;2023-04-03T05:34:37;2.10;;;1.90;;
23123;SDS011;11731;48.592;8.858;2023-04-03T05:37:05;2.17;;;1.83;;
23123;SDS011;11731;48.592;8.858;2023-04-03T05:39:32;2.43;;;2.20;;
23123;SDS011;11731;48.592;8.858;2023-04-03T05:41:59;2.57;;;2.10;;
23123;SDS011;11731;48.592;8.858;2023-04-03T05:44:26;1.80;;;1.70;;
23123;SDS011;11731;48.592;8.858;2023-04-03T05:46:53;2.37;;;2.03;;
23123;SDS011;11731;48.592;8.858;2023-04-03T05:49:20;4.13;;;1.93;;
23123;SDS011;11731;48.592;8.858;2023-04-03T05:51:47;2.40;;;2.20;;
23123;SDS011;11731;48.592;8.858;2023-04-03T05:54:16;2.97;;;2.00;;
23123;SDS011;11731;48.592;8.858;2023-04-03T05:56:46;2.70;;;1.87;;
23123;SDS011;11731;48.592;8.858;2023-04-03T06:00:15;3.03;;;1.50;;
23123;SDS011;11731;48.592;8.858;2023-04-03T06:02:43;2.13;;;1.80;;
23123;SDS011;11731;48.592;8.858;2023-04-03T06:05:16;2.43;;;1.70;;
23123;SDS011;11731;48.592;8.858;2023-04-03T06:07:43;2.47;;;1.70;;
23123;SDS011;11731;48.592;8.858;2023-04-03T06:10:12;3.13;;;1.80;;
23123;SDS011;11731;48.592;8.858;2023-04-03T06:12:39;2.60;;;1.80;;
23123;SDS011;11731;48.592;8.858;2023-04-03T06:15:07;1.97;;;1.87;;
23123;SDS011;11731;48.592;8.858;2023-04-03T06:17:35;3.07;;;1.90;;
23123;SDS011;11731;48.592;8.858;2023-04-03T06:20:02;2.13;;;1.60;;
23123;SDS011;11731;48.592;8.858;2023-04-03T06:22:30;1.60;;;1.50;;
23123;SDS011;11731;48.592;8.858;2023-04-03T06:24:57;1.93;;;1.53;;
23123;SDS011;11731;48.592;8.858;2023-04-03T06:27:32;2.40;;;1.47;;
23123;SDS011;11731;48.592;8.858;2023-04-03T06:30:00;1.77;;;1.67;;
23123;SDS011;11731;48.592;8.858;2023-04-03T06:32:27;2.10;;;1.37;;
23123;SDS011;11731;48.592;8.858;2023-04-03T06:34:54;2.70;;;1.87;;
23123;SDS011;11731;48.592;8.858;2023-04-03T06:37:37;2.53;;;1.60;;
23123;SDS011;11731;48.592;8.858;2023-04-03T06:40:05;2.53;;;1.60;;
23123;SDS011;11731;48.592;8.858;2023-04-03T06:42:34;1.47;;;1.30;;
23123;SDS011;11731;48.592;8.858;2023-04-03T06:45:01;1.93;;;1.50;;
23123;SDS011;11731;48.592;8.858;2023-04-03T06:47:29;2.17;;;1.77;;
23123;SDS011;11731;48.592;8.858;2023-04-03T06:49:55;1.50;;;1.40;;
23123;SDS011;11731;48.592;8.858;2023-04-03T06:52:22;4.20;;;1.50;;
23123;SDS011;11731;48.592;8.858;2023-04-03T06:54:49;1.77;;;1.47;;
23123;SDS011;11731;48.592;8.858;2023-04-03T06:57:22;1.83;;;1.50;;
23123;SDS011;11731;48.592;8.858;2023-04-03T06:59:53;2.73;;;1.83;;
23123;SDS011;11731;48.592;8.858;2023-04-03T07:02:43;2.40;;;1.63;;
23123;SDS011;11731;48.592;8.858;2023-04-03T07:05:10;1.90;;;1.70;;
23123;SDS011;11731;48.592;8.858;2023-04-03T07:07:47;2.40;;;1.80;;
23123;SDS011;11731;48.592;8.858;2023-04-03T07:10:16;1.63;;;1.50;;
23123;SDS011;11731;48.592;8.858;2023-04-03T07:12:50;1.83;;;1.53;;
23123;SDS011;11731;48.592;8.858;2023-04-03T07:21:01;2.33;;;1.80;;
23123;SDS011;11731;48.592;8.858;2023-04-03T07:23:28;1.93;;;1.47;;
23123;SDS011;11731;48.592;8.858;2023-04-03T07:28:45;2.73;;;1.70;;
23123;SDS011;11731;48.592;8.858;2023-04-03T07:31:13;1.97;;;1.60;;
23123;SDS011;11731;48.592;8.858;2023-04-03T07:33:43;1.63;;;1.50;;
23123;SDS011;11731;48.592;8.858;2023-04-03T07:36:11;2.60;;;1.30;;
23123;SDS011;11731;48.592;8.858;2023-04-03T07:38:46;4.00;;;1.50;;
23123;SDS011;11731;48.592;8.858;2023-04-03T07:41:32;2.10;;;1.63;;
23123;SDS011;11731;48.592;8.858;2023-04-03T07:44:13;1.67;;;1.43;;
23123;SDS011;11731;48.592;8.858;2023-04-03T07:46:41;4.10;;;1.53;;
23123;SDS011;11731;48.592;8.858;2023-04-03T07:49:09;2.43;;;1.50;;
23123;SDS011;11731;48.592;8.858;2023-04-03T07:51:36;2.30;;;1.50;;
23123;SDS011;11731;48.592;8.858;2023-04-03T07:54:03;1.70;;;1.50;;
23123;SDS011;11731;48.592;8.858;2023-04-03T07:56:30;1.93;;;1.43;;
23123;SDS011;11731;48.592;8.858;2023-04-03T07:58:57;3.67;;;1.67;;
23123;SDS011;11731;48.592;8.858;2023-04-03T08:01:24;1.83;;;1.60;;
23123;SDS011;11731;48.592;8.858;2023-04-03T08:03:51;2.97;;;1.87;;
23123;SDS011;11731;48.592;8.858;2023-04-03T08:06:19;2.43;;;1.90;;
23123;SDS011;11731;48.592;8.858;2023-04-03T08:08:46;1.87;;;1.60;;
23123;SDS011;11731;48.592;8.858;2023-04-03T08:11:13;1.97;;;1.57;;
23123;SDS011;11731;48.592;8.858;2023-04-03T08:13:40;5.50;;;1.70;;
23123;SDS011;11731;48.592;8.858;2023-04-03T08:16:09;2.07;;;1.50;;
23123;SDS011;11731;48.592;8.858;2023-04-03T08:18:37;1.77;;;1.40;;
23123;SDS011;11731;48.592;8.858;2023-04-03T08:21:05;2.60;;;1.70;;
23123;SDS011;11731;48.592;8.858;2023-04-03T08:23:34;5.00;;;2.00;;
23123;SDS011;11731;48.592;8.858;2023-04-03T08:26:05;1.80;;;1.50;;
23123;SDS011;11731;48.592;8.858;2023-04-03T08:28:51;2.37;;;1.70;;
23123;SDS011;11731;48.592;8.858;2023-04-03T08:31:18;1.63;;;1.53;;
23123;SDS011;11731;48.592;8.858;2023-04-03T08:33:46;1.97;;;1.30;;
23123;SDS011;11731;48.592;8.858;2023-04-03T08:36:18;2.73;;;1.60;;
23123;SDS011;11731;48.592;8.858;2023-04-03T08:38:48;1.30;;;1.20;;
23123;SDS011;11731;48.592;8.858;2023-04-03T08:41:16;2.53;;;1.57;;
23123;SDS011;11731;48.592;8.858;2023-04-03T08:44:03;1.63;;;1.50;;
23123;SDS011;11731;48.592;8.858;2023-04-03T08:46:42;4.90;;;1.47;;
23123;SDS011;11731;48.592;8.858;2023-04-03T08:49:21;3.00;;;1.70;;
23123;SDS011;11731;48.592;8.858;2023-04-03T08:51:52;2.77;;;1.60;;
23123;SDS011;11731;48.592;8.858;2023-04-03T08:54:24;1.83;;;1.50;;
23123;SDS011;11731;48.592;8.858;2023-04-03T08:56:55;2.40;;;1.40;;
23123;SDS011;11731;48.592;8.858;2023-04-03T08:59:26;1.53;;;1.30;;
23123;SDS011;11731;48.592;8.858;2023-04-03T09:01:55;2.23;;;1.30;;
23123;SDS011;11731;48.592;8.858;2023-04-03T09:04:24;1.70;;;1.60;;
23123;SDS011;11731;48.592;8.858;2023-04-03T09:06:54;3.50;;;1.77;;
23123;SDS011;11731;48.592;8.858;2023-04-03T09:09:30;2.43;;;1.57;;
23123;SDS011;11731;48.592;8.858;2023-04-03T09:12:02;1.73;;;1.40;;
23123;SDS011;11731;48.592;8.858;2023-04-03T09:14:39;1.97;;;1.50;;
23123;SDS011;11731;48.592;8.858;2023-04-03T09:17:13;1.97;;;1.60;;
23123;SDS011;11731;48.592;8.858;2023-04-03T09:19:48;2.50;;;1.97;;
23123;SDS011;11731;48.592;8.858;2023-04-03T09:22:21;2.40;;;2.00;;
23123;SDS011;11731;48.592;8.858;2023-04-03T09:24:52;1.73;;;1.47;;
23123;SDS011;11731;48.592;8.858;2023-04-03T09:27:24;1.80;;;1.60;;
23123;SDS011;11731;48.592;8.858;2023-04-03T09:29:52;3.10;;;1.70;;
23123;SDS011;11731;48.592;8.858;2023-04-03T09:32:22;2.20;;;2.00;;
23123;SDS011;11731;48.592;8.858;2023-04-03T09:34:54;2.70;;;1.67;;
23123;SDS011;11731;48.592;8.858;2023-04-03T09:37:33;2.30;;;1.63;;
23123;SDS011;11731;48.592;8.858;2023-04-03T09:40:05;3.50;;;1.53;;
23123;SDS011;11731;48.592;8.858;2023-04-03T09:42:54;2.73;;;1.30;;
23123;SDS011;11731;48.592;8.858;2023-04-03T09:45:23;2.53;;;1.20;;
23123;SDS011;11731;48.592;8.858;2023-04-03T09:48:04;1.80;;;1.50;;
23123;SDS011;11731;48.592;8.858;2023-04-03T09:50:32;1.70;;;1.60;;
23123;SDS011;11731;48.592;8.858;2023-04-03T09:53:04;1.77;;;1.37;;
23123;SDS011;11731;48.592;8.858;2023-04-03T09:55:40;3.23;;;1.70;;
23123;SDS011;11731;48.592;8.858;2023-04-03T09:58:22;3.43;;;1.60;;
23123;SDS011;11731;48.592;8.858;2023-04-03T10:00:53;1.93;;;1.40;;
23123;SDS011;11731;48.592;8.858;2023-04-03T10:03:23;2.63;;;1.70;;
23123;SDS011;11731;48.592;8.858;2023-04-03T10:05:53;2.17;;;1.37;;
23123;SDS011;11731;48.592;8.858;2023-04-03T10:08:21;2.90;;;1.50;;
23123;SDS011;11731;48.592;8.858;2023-04-03T10:11:12;2.50;;;1.60;;
23123;SDS011;11731;48.592;8.858;2023-04-03T10:13:51;5.93;;;2.40;;
23123;SDS011;11731;48.592;8.858;2023-04-03T10:16:21;3.63;;;1.90;;
23123;SDS011;11731;48.592;8.858;2023-04-03T10:18:55;2.37;;;1.83;;
23123;SDS011;11731;48.592;8.858;2023-04-03T10:21:35;3.10;;;1.87;;
23123;SDS011;11731;48.592;8.858;2023-04-03T10:24:09;2.10;;;1.70;;
23123;SDS011;11731;48.592;8.858;2023-04-03T10:26:43;2.27;;;1.70;;
23123;SDS011;11731;48.592;8.858;2023-04-03T10:29:21;2.33;;;1.67;;
23123;SDS011;11731;48.592;8.858;2023-04-03T10:31:59;3.03;;;2.03;;
23123;SDS011;11731;48.592;8.858;2023-04-03T10:34:39;1.60;;;1.50;;
23123;SDS011;11731;48.592;8.858;2023-04-03T10:37:10;3.20;;;1.83;;
23123;SDS011;11731;48.592;8.858;2023-04-03T10:39:46;2.00;;;1.47;;
23123;SDS011;11731;48.592;8.858;2023-04-03T10:42:23;4.40;;;1.60;;
23123;SDS011;11731;48.592;8.858;2023-04-03T10:47:50;2.17;;;1.60;;
23123;SDS011;11731;48.592;8.858;2023-04-03T10:50:29;3.47;;;1.63;;
23123;SDS011;11731;48.592;8.858;2023-04-03T10:53:05;1.30;;;1.20;;
23123;SDS011;11731;48.592;8.858;2023-04-03T10:55:41;3.30;;;1.40;;
23123;SDS011;11731;48.592;8.858;2023-04-03T10:58:17;2.00;;;1.53;;
23123;SDS011;11731;48.592;8.858;2023-04-03T11:00:47;1.47;;;1.30;;
23123;SDS011;11731;48.592;8.858;2023-04-03T11:03:17;1.87;;;1.40;;
23123;SDS011;11731;48.592;8.858;2023-04-03T11:05:56;1.40;;;1.30;;
23123;SDS011;11731;48.592;8.858;2023-04-03T11:08:27;2.07;;;1.63;;
23123;SDS011;11731;48.592;8.858;2023-04-03T11:11:00;1.40;;;1.30;;
23123;SDS011;11731;48.592;8.858;2023-04-03T11:13:33;1.53;;;1.40;;
23123;SDS011;11731;48.592;8.858;2023-04-03T11:16:05;3.00;;;1.77;;
23123;SDS011;11731;48.592;8.858;2023-04-03T11:18:33;1.70;;;1.60;;
23123;SDS011;11731;48.592;8.858;2023-04-03T11:21:07;2.47;;;1.63;;
23123;SDS011;11731;48.592;8.858;2023-04-03T11:23:38;2.13;;;1.50;;
23123;SDS011;11731;48.592;8.858;2023-04-03T11:26:08;3.30;;;1.90;;
23123;SDS011;11731;48.592;8.858;2023-04-03T11:28:38;1.20;;;1.10;;
23123;SDS011;11731;48.592;8.858;2023-04-03T11:31:09;2.87;;;1.77;;
23123;SDS011;11731;48.592;8.858;2023-04-03T11:33:47;1.70;;;1.30;;
23123;SDS011;11731;48.592;8.858;2023-04-03T11:36:22;2.60;;;1.60;;
23123;SDS011;11731;48.592;8.858;2023-04-03T11:38:51;3.67;;;1.53;;
23123;SDS011;11731;48.592;8.858;2023-04-03T11:41:26;2.83;;;1.90;;
23123;SDS011;11731;48.592;8.858;2023-04-03T11:43:59;3.37;;;1.50;;
23123;SDS011;11731;48.592;8.858;2023-04-03T11:58:21;1.90;;;1.40;;
23123;SDS011;11731;48.592;8.858;2023-04-03T12:12:30;2.10;;;1.60;;
23123;SDS011;11731;48.592;8.858;2023-04-03T12:17:48;3.17;;;1.47;;
23123;SDS011;11731;48.592;8.858;2023-04-03T12:23:29;2.40;;;1.37;;
23123;SDS011;11731;48.592;8.858;2023-04-03T12:26:02;1.70;;;1.60;;
23123;SDS011;11731;48.592;8.858;2023-04-03T12:28:38;2.20;;;1.30;;
23123;SDS011;11731;48.592;8.858;2023-04-03T12:31:06;1.93;;;1.57;;
23123;SDS011;11731;48.592;8.858;2023-04-03T12:33:42;2.97;;;1.50;;
23123;SDS011;11731;48.592;8.858;2023-04-03T12:36:26;1.37;;;1.27;;
23123;SDS011;11731;48.592;8.858;2023-04-03T12:39:01;4.33;;;1.33;;
23123;SDS011;11731;48.592;8.858;2023-04-03T12:41:38;2.97;;;1.50;;
23123;SDS011;11731;48.592;8.858;2023-04-03T12:44:15;1.80;;;1.60;;
23123;SDS011;11731;48.592;8.858;2023-04-03T12:47:06;1.60;;;1.30;;
23123;SDS011;11731;48.592;8.858;2023-04-03T12:49:46;1.67;;;1.20;;
23123;SDS011;11731;48.592;8.858;2023-04-03T12:52:17;1.60;;;1.47;;
23123;SDS011;11731;48.592;8.858;2023-04-03T12:54:49;1.13;;;1.03;;
23123;SDS011;11731;48.592;8.858;2023-04-03T12:57:17;3.33;;;1.33;;
23123;SDS011;11731;48.592;8.858;2023-04-03T12:59:46;2.50;;;1.50;;
23123;SDS011;11731;48.592;8.858;2023-04-03T13:02:21;3.53;;;1.50;;
23123;SDS011;11731;48.592;8.858;2023-04-03T13:04:52;1.73;;;1.50;;
23123;SDS011;11731;48.592;8.858;2023-04-03T13:07:23;5.63;;;1.77;;
23123;SDS011;11731;48.592;8.858;2023-04-03T13:10:01;2.67;;;1.30;;
23123;SDS011;11731;48.592;8.858;2023-04-03T13:12:30;1.90;;;1.40;;
23123;SDS011;11731;48.592;8.858;2023-04-03T13:14:58;1.67;;;1.50;;
23123;SDS011;11731;48.592;8.858;2023-04-03T13:17:27;2.27;;;1.30;;
23123;SDS011;11731;48.592;8.858;2023-04-03T13:19:56;2.30;;;1.33;;
23123;SDS011;11731;48.592;8.858;2023-04-03T13:22:37;3.27;;;1.23;;
23123;SDS011;11731;48.592;8.858;2023-04-03T13:25:09;2.23;;;1.20;;
23123;SDS011;11731;48.592;8.858;2023-04-03T13:27:39;1.87;;;1.50;;
23123;SDS011;11731;48.592;8.858;2023-04-03T13:30:17;3.30;;;1.60;;
23123;SDS011;11731;48.592;8.858;2023-04-03T13:32:56;2.40;;;1.40;;
23123;SDS011;11731;48.592;8.858;2023-04-03T13:35:28;1.30;;;1.10;;
23123;SDS011;11731;48.592;8.858;2023-04-03T13:37:58;1.53;;;1.23;;
23123;SDS011;11731;48.592;8.858;2023-04-03T13:40:27;1.93;;;1.23;;
23123;SDS011;11731;48.592;8.858;2023-04-03T13:42:59;2.33;;;1.20;;
23123;SDS011;11731;48.592;8.858;2023-04-03T13:45:30;3.60;;;1.47;;
23123;SDS011;11731;48.592;8.858;2023-04-03T13:48:15;1.47;;;1.33;;
23123;SDS011;11731;48.592;8.858;2023-04-03T13:50:52;1.67;;;1.30;;
23123;SDS011;11731;48.592;8.858;2023-04-03T13:53:21;1.90;;;1.17;;
23123;SDS011;11731;48.592;8.858;2023-04-03T13:55:53;1.47;;;1.30;;
23123;SDS011;11731;48.592;8.858;2023-04-03T13:58:24;2.77;;;1.63;;
23123;SDS011;11731;48.592;8.858;2023-04-03T14:00:53;3.40;;;1.60;;
23123;SDS011;11731;48.592;8.858;2023-04-03T14:03:22;1.50;;;1.30;;
23123;SDS011;11731;48.592;8.858;2023-04-03T14:05:52;1.73;;;1.60;;
23123;SDS011;11731;48.592;8.858;2023-04-03T14:08:20;1.60;;;1.30;;
23123;SDS011;11731;48.592;8.858;2023-04-03T14:10:47;3.40;;;1.80;;
23123;SDS011;11731;48.592;8.858;2023-04-03T14:13:15;3.37;;;1.60;;
23123;SDS011;11731;48.592;8.858;2023-04-03T14:15:45;1.63;;;1.43;;
23123;SDS011;11731;48.592;8.858;2023-04-03T14:18:14;2.53;;;1.50;;
23123;SDS011;11731;48.592;8.858;2023-04-03T14:20:42;4.57;;;1.70;;
23123;SDS011;11731;48.592;8.858;2023-04-03T14:23:10;1.70;;;1.30;;
23123;SDS011;11731;48.592;8.858;2023-04-03T14:25:37;1.50;;;1.20;;
23123;SDS011;11731;48.592;8.858;2023-04-03T14:28:07;1.60;;;1.20;;
23123;SDS011;11731;48.592;8.858;2023-04-03T14:30:41;1.40;;;1.30;;
23123;SDS011;11731;48.592;8.858;2023-04-03T14:33:10;1.40;;;1.30;;
23123;SDS011;11731;48.592;8.858;2023-04-03T14:35:40;1.97;;;1.40;;
23123;SDS011;11731;48.592;8.858;2023-04-03T14:38:14;2.70;;;1.40;;
23123;SDS011;11731;48.592;8.858;2023-04-03T14:40:48;3.03;;;1.60;;
23123;SDS011;11731;48.592;8.858;2023-04-03T14:43:15;2.00;;;1.50;;
23123;SDS011;11731;48.592;8.858;2023-04-03T14:45:42;2.07;;;1.20;;
23123;SDS011;11731;48.592;8.858;2023-04-03T14:48:10;1.20;;;1.10;;
23123;SDS011;11731;48.592;8.858;2023-04-03T14:50:43;1.80;;;1.30;;
23123;SDS011;11731;48.592;8.858;2023-04-03T14:53:10;2.17;;;1.20;;
23123;SDS011;11731;48.592;8.858;2023-04-03T14:55:40;3.53;;;1.50;;
23123;SDS011;11731;48.592;8.858;2023-04-03T14:58:11;3.60;;;1.63;;
23123;SDS011;11731;48.592;8.858;2023-04-03T15:00:45;1.67;;;1.30;;
23123;SDS011;11731;48.592;8.858;2023-04-03T15:03:23;2.23;;;1.33;;
23123;SDS011;11731;48.592;8.858;2023-04-03T15:05:52;3.17;;;1.43;;
23123;SDS011;11731;48.592;8.858;2023-04-03T15:08:20;2.13;;;1.20;;
23123;SDS011;11731;48.592;8.858;2023-04-03T15:11:06;3.67;;;1.50;;
23123;SDS011;11731;48.592;8.858;2023-04-03T15:13:37;2.37;;;1.10;;
23123;SDS011;11731;48.592;8.858;2023-04-03T15:16:04;2.07;;;1.50;;
23123;SDS011;11731;48.592;8.858;2023-04-03T15:18:34;1.40;;;1.20;;
23123;SDS011;11731;48.592;8.858;2023-04-03T15:21:03;3.20;;;1.70;;
23123;SDS011;11731;48.592;8.858;2023-04-03T15:23:32;2.20;;;1.43;;
23123;SDS011;11731;48.592;8.858;2023-04-03T15:25:59;2.57;;;1.50;;
23123;SDS011;11731;48.592;8.858;2023-04-03T15:28:27;2.07;;;1.57;;
23123;SDS011;11731;48.592;8.858;2023-04-03T15:30:55;2.10;;;1.47;;
23123;SDS011;11731;48.592;8.858;2023-04-03T15:33:23;1.60;;;1.30;;
23123;SDS011;11731;48.592;8.858;2023-04-03T15:35:50;2.40;;;1.37;;
23123;SDS011;11731;48.592;8.858;2023-04-03T15:38:17;2.83;;;1.50;;
23123;SDS011;11731;48.592;8.858;2023-04-03T15:40:45;1.77;;;1.57;;
23123;SDS011;11731;48.592;8.858;2023-04-03T15:43:13;2.97;;;1.50;;
23123;SDS011;11731;48.592;8.858;2023-04-03T15:45:41;1.87;;;1.57;;
23123;SDS011;11731;48.592;8.858;2023-04-03T15:48:08;4.60;;;1.60;;
23123;SDS011;11731;48.592;8.858;2023-04-03T15:50:36;2.13;;;1.50;;
23123;SDS011;11731;48.592;8.858;2023-04-03T15:53:03;3.63;;;1.70;;
23123;SDS011;11731;48.592;8.858;2023-04-03T15:55:30;2.30;;;1.50;;
23123;SDS011;11731;48.592;8.858;2023-04-03T15:58:00;2.33;;;1.50;;
23123;SDS011;11731;48.592;8.858;2023-04-03T16:00:32;1.70;;;1.50;;
23123;SDS011;11731;48.592;8.858;2023-04-03T16:03:02;3.33;;;1.80;;
23123;SDS011;11731;48.592;8.858;2023-04-03T16:06:02;2.33;;;1.40;;
23123;SDS011;11731;48.592;8.858;2023-04-03T16:08:19;3.10;;;1.80;;
23123;SDS011;11731;48.592;8.858;2023-04-03T16:10:47;1.77;;;1.40;;